Deerfield, MA

7:09 AM EST on December 07, 2016 (GMT -0500)
| | Change Station
Active Advisory: Special Statement

Elev -9999 ft 0.00 °N, 0.00 °E | Updated

Cloudy
Cloudy
35 °F
Feels Like 35 °F
N
1
Wind Variable Wind from SE
Gusts mph

Today
High -- | Low -- °F
--% Chance of Precip.
Yesterday
High -- | Low -- °F
Precip. -- in
Pressure 29.96 in
Visibility 3.0 miles
Clouds Overcast 4200 ft
Dew Point 33 °F
Humidity 94%
Rainfall --
Snow Depth Not available.
7:07 AM 4:17 PM
First Quarter, 52% visible
SPECI KORE 071200Z AUTO 00000KT 3SM BR OVC042 00/00 A2996 RMK AO2 T00000000
Pressure 29.96 in
Visibility 3.0 miles
Clouds Overcast 4200 ft
Dew Point 33 °F
Humidity 94%
Rainfall --
Snow Depth Not available.
7:07 AM 4:17 PM
First Quarter, 52% visible
SPECI KORE 071200Z AUTO 00000KT 3SM BR OVC042 00/00 A2996 RMK AO2 T00000000

10-Day Weather Forecast

Almanac

Astronomy

Dec. 07, 2016 Rise Set
Actual Time
Civil Twilight
Nautical Twilight
Astronomical Twilight
Moon
Length of Visible Light
Length of Day
Tomorrow will be .
, % of the Moon is Illuminated

Today's Extremes

State Highs State Lows

Community

WunderPhotos

Upload Photos

1,956,111 photos uploaded!

WunderBlog® & News

Nearby

Air Quality

  Air Quality AQ Index Pollutant
Not available.

Snow Depth

Station Depth Elevation

Earthquake Activity

City Distance Mag. Time & Date
Minimum magnitude displayed is 2.5.

Coastal Water Temperatures

Place Temperature

Stations

Nearby Weather Stations

Station Location Temp. Windchill Dew Point Humidity Wind Precip. Elev Updated Type
                   

Watches & Warnings

Special Statement
Issued: 4:23 AM EST Dec. 7, 2016 – National Weather Service

... Light snow may lead to localized slippery spots for the
morning commute...

Light snow should continue into the first part of the morning
commute, especially at elevations at and above 700 feet in western
and central Massachusetts. This snow may lead to localized
slippery conditions on untreated Road and walkways.

Snow is expected to end between 6 am and 9 am. Commuters should
allow extra travel time to reach their destination this morning.


Belk

423 am EST Wed Dec 7 2016

... Light snow may lead to localized slippery spots for the
morning commute...

Light snow should continue into the first part of the morning
commute, especially at elevations at and above 700 feet in western
and central Massachusetts. This snow may lead to localized
slippery conditions on untreated Road and walkways.

Snow is expected to end between 6 am and 9 am. Commuters should
allow extra travel time to reach their destination this morning.


Belk